createdAt,value
2017-09-03T00:00:50.928Z,17.63
2017-09-03T00:02:51.864Z,13.43
2017-09-03T00:04:52.799Z,9.00
2017-09-03T00:06:53.757Z,8.63
2017-09-03T00:08:54.693Z,7.23
2017-09-03T00:10:55.682Z,8.60
2017-09-03T00:12:56.626Z,8.87
2017-09-03T00:14:57.571Z,8.60
2017-09-03T00:16:58.509Z,18.13
2017-09-03T00:18:59.452Z,9.88
2017-09-03T00:21:00.398Z,9.70
2017-09-03T00:23:01.361Z,10.47
2017-09-03T00:25:02.307Z,9.80
2017-09-03T00:27:03.256Z,9.63
2017-09-03T00:29:04.204Z,9.27
2017-09-03T00:31:05.142Z,9.27
2017-09-03T00:33:06.095Z,9.07
2017-09-03T00:35:07.044Z,12.40
2017-09-03T00:37:07.977Z,9.20
2017-09-03T00:39:08.915Z,10.30
2017-09-03T00:41:09.860Z,12.67
2017-09-03T00:43:10.804Z,12.70
2017-09-03T00:45:11.792Z,7.13
2017-09-03T00:47:12.741Z,10.50
2017-09-03T00:49:13.685Z,7.47
2017-09-03T00:51:14.621Z,10.57
2017-09-03T00:53:15.567Z,7.57
2017-09-03T00:55:16.504Z,7.43
2017-09-03T00:57:17.436Z,8.20
2017-09-03T00:59:18.386Z,16.00
2017-09-03T01:01:19.321Z,10.03
2017-09-03T01:03:20.282Z,9.43
2017-09-03T01:05:21.236Z,8.73
2017-09-03T01:07:22.177Z,10.67
2017-09-03T01:09:23.125Z,9.17
2017-09-03T01:11:24.052Z,11.00
2017-09-03T01:13:24.985Z,9.90
2017-09-03T01:15:25.948Z,7.67
2017-09-03T01:17:26.908Z,7.13
2017-09-03T01:19:27.847Z,11.07
2017-09-03T01:21:28.797Z,7.17
2017-09-03T01:23:29.744Z,10.97
2017-09-03T01:25:30.691Z,11.10
2017-09-03T01:27:31.665Z,13.73
2017-09-03T01:29:32.606Z,13.03
2017-09-03T01:31:33.547Z,11.17
2017-09-03T01:33:34.489Z,8.63
2017-09-03T01:35:35.440Z,16.20
2017-09-03T01:37:36.363Z,10.47
2017-09-03T01:39:37.296Z,10.17
2017-09-03T01:41:38.232Z,12.27
2017-09-03T01:43:39.168Z,8.80
2017-09-03T01:45:40.126Z,9.57
2017-09-03T01:47:41.062Z,8.30
2017-09-03T01:49:41.991Z,9.70
2017-09-03T01:51:42.929Z,16.43
2017-09-03T01:53:43.852Z,9.80
2017-09-03T01:55:44.776Z,13.30
2017-09-03T01:57:45.716Z,9.73
2017-09-03T01:59:46.644Z,9.47
2017-09-03T02:01:47.585Z,9.90
2017-09-03T02:03:48.513Z,14.00
2017-09-03T02:05:49.452Z,13.93
2017-09-03T02:07:50.401Z,13.77
2017-09-03T02:09:51.329Z,14.33
2017-09-03T02:11:52.261Z,18.10
2017-09-03T02:13:53.193Z,18.70
2017-09-03T02:15:54.128Z,11.57
2017-09-03T02:17:55.068Z,22.77
2017-09-03T02:19:56.011Z,14.53
2017-09-03T02:21:56.964Z,12.23
2017-09-03T02:23:57.904Z,13.00
2017-09-03T02:25:58.843Z,13.97
2017-09-03T02:27:59.795Z,13.90
2017-09-03T02:30:00.737Z,14.20
2017-09-03T02:32:01.781Z,13.63
2017-09-03T02:34:02.741Z,16.83
2017-09-03T02:36:03.693Z,16.23
2017-09-03T02:38:04.641Z,11.50
2017-09-03T02:40:05.581Z,13.47
2017-09-03T02:42:06.543Z,13.40
2017-09-03T02:44:07.494Z,12.90
2017-09-03T02:46:08.436Z,12.57
2017-09-03T02:48:09.380Z,186.60
2017-09-03T02:50:10.312Z,20.53
2017-09-03T02:52:11.251Z,23.47
2017-09-03T02:54:12.207Z,9.77
2017-09-03T02:56:13.137Z,12.10
2017-09-03T02:58:14.099Z,7.93
2017-09-03T03:00:15.032Z,10.23
2017-09-03T03:02:16.032Z,10.73
2017-09-03T03:04:16.968Z,12.70
2017-09-03T03:06:17.900Z,12.00
2017-09-03T03:08:18.852Z,14.60
2017-09-03T03:10:19.799Z,14.77
2017-09-03T03:12:20.732Z,13.80
2017-09-03T03:14:21.673Z,15.33
2017-09-03T03:16:22.612Z,15.87
2017-09-03T03:18:23.551Z,20.30
2017-09-03T03:20:24.489Z,19.33
2017-09-03T03:22:25.423Z,21.13
2017-09-03T03:24:26.372Z,18.30
2017-09-03T03:26:27.308Z,17.20
2017-09-03T03:28:28.254Z,19.20
2017-09-03T03:30:29.425Z,20.37
2017-09-03T03:32:30.360Z,19.30
2017-09-03T03:34:31.312Z,18.83
2017-09-03T03:36:32.248Z,16.20
2017-09-03T03:38:33.197Z,16.57
2017-09-03T03:40:34.133Z,16.50
2017-09-03T03:42:35.059Z,16.03
2017-09-03T03:44:36.017Z,26.53
2017-09-03T03:46:36.961Z,14.60
2017-09-03T03:48:37.896Z,15.90
2017-09-03T03:50:38.832Z,17.83
2017-09-03T03:52:39.769Z,14.53
2017-09-03T03:54:40.712Z,19.20
2017-09-03T03:56:41.652Z,14.77
2017-09-03T03:58:42.589Z,16.73
2017-09-03T04:00:43.531Z,23.13
2017-09-03T04:02:44.688Z,20.13
2017-09-03T04:04:45.645Z,18.00
2017-09-03T04:06:46.579Z,20.10
2017-09-03T04:08:47.522Z,19.10
2017-09-03T04:10:48.469Z,17.50
2017-09-03T04:12:49.409Z,21.53
2017-09-03T04:14:50.344Z,20.43
2017-09-03T04:16:51.285Z,19.93
2017-09-03T04:18:52.225Z,19.53
2017-09-03T04:20:53.163Z,17.43
2017-09-03T04:22:54.096Z,23.97
2017-09-03T04:24:55.036Z,19.67
2017-09-03T04:26:55.981Z,18.23
2017-09-03T04:28:56.907Z,14.37
2017-09-03T04:30:57.865Z,16.77
2017-09-03T04:32:58.797Z,17.30
2017-09-03T04:34:59.791Z,16.83
2017-09-03T04:37:00.720Z,16.60
2017-09-03T04:39:01.656Z,17.10
2017-09-03T04:41:02.584Z,17.67
2017-09-03T04:43:03.534Z,15.17
2017-09-03T04:45:04.467Z,16.43
2017-09-03T04:47:05.403Z,15.90
2017-09-03T04:49:06.332Z,15.37
2017-09-03T04:51:07.274Z,18.20
2017-09-03T04:53:08.230Z,16.57
2017-09-03T04:55:09.171Z,19.80
2017-09-03T04:57:10.117Z,25.80
2017-09-03T04:59:11.056Z,19.93
2017-09-03T05:01:11.995Z,18.73
2017-09-03T05:03:12.932Z,17.63
2017-09-03T05:05:13.860Z,17.50
2017-09-03T05:07:15.018Z,23.73
2017-09-03T05:09:15.964Z,18.27
2017-09-03T05:11:16.909Z,17.03
2017-09-03T05:13:17.856Z,30.67
2017-09-03T05:15:18.792Z,16.27
2017-09-03T05:17:19.736Z,17.83
2017-09-03T05:19:20.715Z,19.90
2017-09-03T05:21:21.748Z,17.17
2017-09-03T05:23:22.911Z,20.40
2017-09-03T05:25:23.832Z,19.93
2017-09-03T05:27:24.756Z,16.30
2017-09-03T05:29:25.700Z,21.60
2017-09-03T05:31:26.633Z,17.80
2017-09-03T05:33:27.564Z,21.40
2017-09-03T05:35:28.500Z,17.97
2017-09-03T05:37:29.436Z,27.03
2017-09-03T05:39:30.593Z,21.23
2017-09-03T05:41:31.529Z,22.30
2017-09-03T05:43:32.472Z,24.50
2017-09-03T05:45:33.425Z,31.73
2017-09-03T05:47:34.370Z,27.40
2017-09-03T05:49:35.311Z,23.87
2017-09-03T05:51:36.260Z,30.60
2017-09-03T05:53:37.217Z,21.13
2017-09-03T05:55:38.166Z,25.30
2017-09-03T05:57:39.117Z,22.93
2017-09-03T05:59:40.064Z,24.17
2017-09-03T06:01:41.016Z,23.20
2017-09-03T06:03:41.968Z,25.60
2017-09-03T06:05:42.913Z,28.60
2017-09-03T06:07:43.864Z,26.40
2017-09-03T06:09:44.803Z,31.73
2017-09-03T06:11:45.816Z,30.10
2017-09-03T06:13:46.762Z,31.90
2017-09-03T06:15:47.703Z,31.73
2017-09-03T06:17:48.632Z,31.60
2017-09-03T06:19:49.586Z,31.67
2017-09-03T06:21:50.538Z,31.80
2017-09-03T06:23:51.476Z,33.77
2017-09-03T06:25:52.415Z,30.87
2017-09-03T06:27:53.357Z,37.40
2017-09-03T06:29:54.304Z,34.33
2017-09-03T06:31:55.227Z,36.63
2017-09-03T06:33:56.169Z,36.90
2017-09-03T06:35:57.108Z,32.47
2017-09-03T06:37:58.039Z,32.40
2017-09-03T06:39:58.977Z,35.63
2017-09-03T06:41:59.908Z,35.60
2017-09-03T06:44:00.849Z,40.97
2017-09-03T06:46:01.796Z,30.17
2017-09-03T06:48:02.737Z,35.20
2017-09-03T06:50:03.676Z,40.10
2017-09-03T06:52:04.632Z,32.93
2017-09-03T06:54:05.572Z,34.43
2017-09-03T06:56:06.519Z,34.20
2017-09-03T06:58:07.458Z,31.67
2017-09-03T07:00:09.134Z,34.80
2017-09-03T07:02:10.073Z,33.20
2017-09-03T07:04:11.022Z,31.43
2017-09-03T07:06:11.981Z,34.13
2017-09-03T07:08:12.922Z,35.30
2017-09-03T07:10:13.860Z,31.07
2017-09-03T07:12:14.823Z,26.80
2017-09-03T07:14:15.752Z,37.83
2017-09-03T07:16:16.684Z,31.40
2017-09-03T07:18:17.622Z,32.93
2017-09-03T07:20:18.566Z,30.77
2017-09-03T07:22:19.508Z,27.23
2017-09-03T07:24:20.442Z,35.03
2017-09-03T07:26:21.372Z,30.80
2017-09-03T07:28:22.319Z,30.30
2017-09-03T07:30:23.431Z,32.03
2017-09-03T07:32:24.368Z,31.03
2017-09-03T07:34:25.303Z,28.50
2017-09-03T07:36:26.237Z,27.83
2017-09-03T07:38:27.167Z,33.97
2017-09-03T07:40:28.111Z,32.83
2017-09-03T07:42:29.062Z,34.70
2017-09-03T07:44:29.997Z,26.87
2017-09-03T07:46:30.945Z,27.27
2017-09-03T07:48:31.869Z,26.17
2017-09-03T07:50:32.793Z,32.50
2017-09-03T07:52:33.723Z,26.13
2017-09-03T07:54:34.659Z,34.43
2017-09-03T07:56:35.594Z,27.47
2017-09-03T07:58:36.516Z,26.00
2017-09-03T08:00:37.447Z,24.00
2017-09-03T08:02:38.376Z,24.90
2017-09-03T08:04:39.328Z,22.80
2017-09-03T08:06:40.259Z,19.63
2017-09-03T08:08:41.199Z,19.23
2017-09-03T08:10:42.128Z,18.63
2017-09-03T08:12:43.076Z,20.63
2017-09-03T08:14:44.008Z,27.37
2017-09-03T08:16:44.936Z,18.73
2017-09-03T08:18:45.876Z,19.80
2017-09-03T08:20:46.804Z,17.03
2017-09-03T08:22:47.816Z,17.87
2017-09-03T08:24:48.755Z,18.47
2017-09-03T08:26:49.696Z,18.57
2017-09-03T08:28:50.632Z,16.57
2017-09-03T08:30:51.560Z,19.77
2017-09-03T08:32:52.495Z,18.80
2017-09-03T08:35:00.416Z,19.90
2017-09-03T08:37:01.343Z,17.27
2017-09-03T08:39:02.296Z,19.77
2017-09-03T08:41:03.231Z,15.70
2017-09-03T08:43:04.177Z,14.10
2017-09-03T08:45:05.343Z,12.03
2017-09-03T08:47:07.561Z,22.90
2017-09-03T08:49:08.500Z,17.85
2017-09-03T08:51:09.446Z,17.83
2017-09-03T08:53:10.416Z,16.00
2017-09-03T08:55:11.353Z,15.17
2017-09-03T08:57:12.316Z,16.23
2017-09-03T08:59:13.276Z,11.03
2017-09-03T09:01:14.223Z,8.73
2017-09-03T09:03:15.149Z,8.63
2017-09-03T09:05:16.078Z,9.60
2017-09-03T09:07:17.008Z,10.53
2017-09-03T09:09:17.935Z,7.20
2017-09-03T09:11:18.871Z,9.40
2017-09-03T09:13:19.804Z,6.20
2017-09-03T09:15:20.764Z,9.30
2017-09-03T09:17:21.697Z,7.87
2017-09-03T09:19:22.638Z,9.07
2017-09-03T09:21:23.575Z,8.30
2017-09-03T09:23:24.514Z,6.27
2017-09-03T09:25:26.211Z,9.30
2017-09-03T09:27:27.168Z,6.97
2017-09-03T09:29:28.103Z,5.00
2017-09-03T09:31:29.209Z,7.13
2017-09-03T09:33:30.139Z,7.20
2017-09-03T09:35:31.076Z,8.20
2017-09-03T09:37:32.028Z,7.07
2017-09-03T09:39:32.960Z,7.07
2017-09-03T09:41:33.895Z,5.13
2017-09-03T09:43:34.827Z,8.33
2017-09-03T09:45:35.764Z,5.00
2017-09-03T09:47:36.766Z,5.33
2017-09-03T09:49:37.733Z,11.40
2017-09-03T09:51:38.671Z,5.53
2017-09-03T09:53:39.663Z,7.03
2017-09-03T09:55:40.605Z,5.37
2017-09-03T09:57:41.580Z,6.40
2017-09-03T09:59:42.526Z,7.70
2017-09-03T10:01:43.477Z,6.70
2017-09-03T10:03:44.420Z,6.67
2017-09-03T10:05:45.360Z,6.60
2017-09-03T10:07:46.316Z,6.60
2017-09-03T10:09:47.239Z,5.30
2017-09-03T10:11:48.184Z,4.30
2017-09-03T10:13:49.121Z,5.60
2017-09-03T10:15:50.069Z,8.27
2017-09-03T10:17:51.015Z,8.13
2017-09-03T10:19:51.951Z,5.33
2017-09-03T10:21:52.903Z,4.57
2017-09-03T10:23:53.857Z,4.43
2017-09-03T10:25:54.791Z,5.07
2017-09-03T10:27:55.732Z,6.03
2017-09-03T10:29:56.664Z,4.53
2017-09-03T10:31:57.610Z,5.67
2017-09-03T10:33:58.565Z,3.60
2017-09-03T10:35:59.575Z,5.07
2017-09-03T10:38:00.516Z,4.93
2017-09-03T10:40:01.467Z,6.60
2017-09-03T10:42:02.403Z,5.80
2017-09-03T10:44:03.345Z,4.97
2017-09-03T10:46:04.283Z,6.90
2017-09-03T10:48:05.219Z,5.00
2017-09-03T10:50:06.164Z,4.53
2017-09-03T10:52:07.092Z,5.40
2017-09-03T10:54:08.827Z,5.50
2017-09-03T10:56:09.772Z,4.97
2017-09-03T10:58:10.776Z,3.10
2017-09-03T11:00:11.708Z,5.53
2017-09-03T11:02:12.655Z,3.53
2017-09-03T11:04:13.604Z,4.97
2017-09-03T11:06:14.535Z,3.47
2017-09-03T11:08:15.475Z,5.83
2017-09-03T11:10:16.417Z,4.07
2017-09-03T11:12:17.347Z,2.97
2017-09-03T11:14:18.295Z,5.00
2017-09-03T11:16:19.235Z,3.03
2017-09-03T11:18:20.173Z,4.53
2017-09-03T11:20:21.121Z,4.40
2017-09-03T11:22:22.081Z,3.97
2017-09-03T11:24:23.033Z,6.10
2017-09-03T11:26:23.975Z,3.83
2017-09-03T11:28:24.920Z,3.77
2017-09-03T11:30:25.859Z,4.17
2017-09-03T11:32:26.787Z,5.70
2017-09-03T11:34:27.736Z,5.50
2017-09-03T11:36:28.667Z,5.20
2017-09-03T11:38:29.605Z,5.23
2017-09-03T11:40:30.549Z,4.70
2017-09-03T11:42:31.484Z,7.03
2017-09-03T11:44:32.432Z,3.53
2017-09-03T11:46:33.389Z,5.70
2017-09-03T11:48:34.366Z,4.53
2017-09-03T11:50:35.324Z,4.17
2017-09-03T11:52:36.269Z,8.53
2017-09-03T11:54:37.212Z,6.30
2017-09-03T11:56:38.139Z,4.67
2017-09-03T11:58:39.064Z,2.77
2017-09-03T12:00:40.005Z,4.17
2017-09-03T12:02:40.944Z,4.28
2017-09-03T12:04:41.880Z,3.20
2017-09-03T12:06:42.815Z,7.90
2017-09-03T12:08:43.756Z,4.83
2017-09-03T12:10:44.695Z,3.63
2017-09-03T12:12:45.652Z,7.50
2017-09-03T12:14:46.615Z,5.67
2017-09-03T12:16:47.569Z,5.70
2017-09-03T12:18:48.525Z,3.37
2017-09-03T12:20:49.476Z,3.07
2017-09-03T12:22:50.428Z,4.67
2017-09-03T12:24:51.380Z,9.60
2017-09-03T12:26:52.320Z,5.93
2017-09-03T12:28:53.261Z,4.60
2017-09-03T12:30:54.201Z,4.30
2017-09-03T12:32:55.144Z,4.83
2017-09-03T12:34:56.080Z,9.97
2017-09-03T12:36:57.033Z,3.97
2017-09-03T12:38:57.959Z,8.23
2017-09-03T12:40:58.965Z,3.63
2017-09-03T12:42:59.905Z,4.57
2017-09-03T12:45:00.849Z,3.77
2017-09-03T12:47:01.793Z,10.27
2017-09-03T12:49:02.788Z,4.47
2017-09-03T12:51:03.712Z,4.60
2017-09-03T12:53:04.659Z,3.60
2017-09-03T12:55:05.586Z,3.47
2017-09-03T12:57:06.525Z,4.73
2017-09-03T12:59:07.457Z,4.37
2017-09-03T13:01:08.404Z,5.37
2017-09-03T13:03:09.344Z,4.40
2017-09-03T13:05:10.283Z,3.40
2017-09-03T13:07:11.221Z,5.00
2017-09-03T13:09:12.147Z,8.40
2017-09-03T13:11:13.132Z,7.40
2017-09-03T13:13:14.067Z,3.07
2017-09-03T13:15:14.991Z,3.87
2017-09-03T13:17:15.933Z,4.03
2017-09-03T13:19:16.875Z,3.30
2017-09-03T13:21:17.871Z,3.80
2017-09-03T13:23:18.803Z,5.13
2017-09-03T13:25:19.731Z,3.93
2017-09-03T13:27:20.669Z,5.80
2017-09-03T13:29:21.603Z,3.90
2017-09-03T13:31:22.523Z,10.63
2017-09-03T13:33:24.200Z,4.35
2017-09-03T13:35:25.144Z,4.10
2017-09-03T13:37:26.102Z,6.87
2017-09-03T13:39:27.028Z,3.83
2017-09-03T13:41:27.982Z,3.57
2017-09-03T13:43:28.936Z,3.83
2017-09-03T13:45:29.864Z,4.20
2017-09-03T13:47:31.035Z,3.33
2017-09-03T13:49:31.982Z,4.27
2017-09-03T13:51:32.896Z,2.70
2017-09-03T13:53:33.828Z,5.37
2017-09-03T13:55:34.759Z,2.83
2017-09-03T13:57:35.712Z,3.45
2017-09-03T13:59:36.652Z,3.23
2017-09-03T14:01:37.596Z,4.93
2017-09-03T14:03:38.703Z,2.40
2017-09-03T14:05:39.627Z,2.13
2017-09-03T14:07:40.572Z,5.43
2017-09-03T14:09:41.501Z,7.23
2017-09-03T14:11:42.437Z,3.40
2017-09-03T14:13:43.446Z,2.97
2017-09-03T14:15:44.402Z,5.83
2017-09-03T14:17:45.328Z,5.37
2017-09-03T14:19:46.260Z,5.13
2017-09-03T14:21:47.189Z,7.87
2017-09-03T14:23:48.145Z,3.43
2017-09-03T14:25:49.075Z,2.50
2017-09-03T14:27:50.021Z,2.37
2017-09-03T14:29:50.955Z,2.40
2017-09-03T14:31:51.883Z,2.67
2017-09-03T14:33:52.833Z,4.30
2017-09-03T14:35:53.783Z,4.17
2017-09-03T14:37:54.709Z,4.23
2017-09-03T14:39:56.392Z,5.00
2017-09-03T14:41:57.315Z,3.90
2017-09-03T14:43:58.243Z,6.30
2017-09-03T14:45:59.176Z,3.53
2017-09-03T14:48:00.124Z,4.53
2017-09-03T14:50:01.072Z,4.30
2017-09-03T14:52:02.020Z,8.27
2017-09-03T14:54:02.968Z,3.80
2017-09-03T14:56:03.912Z,4.17
2017-09-03T14:58:04.844Z,4.80
2017-09-03T15:00:05.783Z,3.70
2017-09-03T15:02:06.724Z,6.33
2017-09-03T15:04:07.664Z,5.00
2017-09-03T15:06:08.604Z,3.53
2017-09-03T15:08:09.537Z,5.57
2017-09-03T15:10:10.476Z,3.40
2017-09-03T15:12:11.424Z,4.30
2017-09-03T15:14:12.369Z,3.20
2017-09-03T15:16:13.300Z,3.80
2017-09-03T15:18:14.255Z,3.50
2017-09-03T15:20:15.184Z,3.33
2017-09-03T15:22:16.131Z,4.50
2017-09-03T15:24:17.068Z,4.63
2017-09-03T15:26:18.000Z,5.70
2017-09-03T15:28:18.931Z,4.13
2017-09-03T15:30:19.865Z,4.03
2017-09-03T15:32:20.807Z,5.60
2017-09-03T15:34:21.757Z,5.53
2017-09-03T15:36:22.695Z,4.27
2017-09-03T15:38:23.629Z,4.57
2017-09-03T15:40:24.551Z,4.17
2017-09-03T15:42:25.488Z,3.27
2017-09-03T15:44:26.416Z,3.10
2017-09-03T15:46:27.353Z,3.30
2017-09-03T15:48:28.279Z,5.70
2017-09-03T15:50:29.199Z,5.97
2017-09-03T15:52:30.136Z,3.20
2017-09-03T15:54:31.076Z,3.33
2017-09-03T15:56:32.012Z,7.97
2017-09-03T15:58:32.940Z,6.30
2017-09-03T16:00:33.894Z,5.40
2017-09-03T16:02:34.832Z,2.83
2017-09-03T16:04:35.755Z,5.10
2017-09-03T16:06:36.687Z,3.93
2017-09-03T16:08:37.620Z,4.00
2017-09-03T16:10:38.554Z,3.57
2017-09-03T16:12:39.488Z,3.07
2017-09-03T16:14:40.412Z,5.43
2017-09-03T16:16:41.331Z,3.70
2017-09-03T16:18:42.264Z,6.37
2017-09-03T16:20:43.196Z,6.67
2017-09-03T16:22:44.140Z,4.00
2017-09-03T16:24:45.075Z,4.93
2017-09-03T16:26:46.008Z,8.23
2017-09-03T16:28:46.952Z,5.87
2017-09-03T16:30:47.879Z,4.28
2017-09-03T16:32:48.816Z,4.53
2017-09-03T16:34:49.772Z,4.37
2017-09-03T16:36:50.712Z,4.77
2017-09-03T16:38:51.652Z,3.23
2017-09-03T16:40:52.580Z,7.97
2017-09-03T16:42:53.521Z,4.20
2017-09-03T16:45:03.222Z,5.40
2017-09-03T16:47:11.484Z,2.97
2017-09-03T16:49:22.622Z,10.07
2017-09-03T16:51:23.573Z,4.50
2017-09-03T16:53:25.272Z,4.43
2017-09-03T16:55:26.220Z,5.10
2017-09-03T16:57:27.156Z,5.07
2017-09-03T16:59:28.108Z,12.93
2017-09-03T17:01:29.055Z,6.60
2017-09-03T17:03:30.001Z,11.43
2017-09-03T17:05:30.944Z,6.80
2017-09-03T17:07:32.107Z,6.30
2017-09-03T17:09:33.060Z,8.83
2017-09-03T17:11:34.011Z,4.53
2017-09-03T17:13:34.957Z,3.27
2017-09-03T17:15:35.899Z,5.70
2017-09-03T17:17:36.844Z,3.50
2017-09-03T17:19:37.775Z,10.10
2017-09-03T17:21:39.647Z,5.23
2017-09-03T17:23:40.580Z,6.90
2017-09-03T17:25:41.536Z,4.87
2017-09-03T17:27:42.481Z,5.10
2017-09-03T17:29:43.427Z,6.70
2017-09-03T17:31:45.363Z,9.27
2017-09-03T17:33:46.305Z,3.53
2017-09-03T17:38:24.123Z,5.23
2017-09-03T17:40:26.833Z,5.53
2017-09-03T17:42:28.707Z,5.13
2017-09-03T17:44:29.643Z,6.57
2017-09-03T17:46:30.591Z,4.57
2017-09-03T17:48:31.532Z,5.73
2017-09-03T17:50:32.487Z,3.97
2017-09-03T17:52:33.443Z,5.47
2017-09-03T17:54:34.385Z,6.70
2017-09-03T17:56:35.328Z,6.47
2017-09-03T17:58:36.288Z,6.60
2017-09-03T18:00:37.248Z,7.70
2017-09-03T18:02:38.186Z,7.30
2017-09-03T18:04:41.080Z,3.67
2017-09-03T18:06:42.036Z,4.00
2017-09-03T18:08:43.007Z,5.70
2017-09-03T18:10:43.988Z,5.30
2017-09-03T18:12:44.919Z,6.90
2017-09-03T18:14:45.859Z,4.43
2017-09-03T18:16:46.817Z,8.23
2017-09-03T18:18:47.765Z,8.37
2017-09-03T18:20:48.719Z,6.53
2017-09-03T18:22:49.664Z,8.03
2017-09-03T18:24:50.604Z,4.43
2017-09-03T18:26:51.559Z,9.37
2017-09-03T18:28:53.292Z,14.40
2017-09-03T18:30:55.235Z,5.23
2017-09-03T18:32:56.167Z,4.20
2017-09-03T18:34:57.115Z,10.17
2017-09-03T18:36:59.892Z,9.43
2017-09-03T18:39:05.720Z,3.93
2017-09-03T18:41:10.688Z,10.17
2017-09-03T18:43:11.635Z,3.60
2017-09-03T18:45:12.616Z,10.43
2017-09-03T18:47:13.580Z,4.20
2017-09-03T18:49:14.551Z,4.90
2017-09-03T18:51:15.508Z,7.60
2017-09-03T18:53:17.259Z,4.83
2017-09-03T18:55:18.200Z,4.43
2017-09-03T18:57:19.932Z,9.73
2017-09-03T19:01:57.217Z,7.03
2017-09-03T19:03:58.359Z,5.10
2017-09-03T19:05:59.324Z,6.10
2017-09-03T19:08:00.265Z,4.47
2017-09-03T19:10:01.200Z,5.10
2017-09-03T19:12:02.192Z,3.73
2017-09-03T19:14:03.123Z,4.90
2017-09-03T19:16:04.088Z,12.20
2017-09-03T19:18:05.111Z,4.27
2017-09-03T19:20:06.251Z,6.07
2017-09-03T19:22:07.232Z,7.87
2017-09-03T19:24:08.185Z,6.63
2017-09-03T19:26:09.141Z,6.90
2017-09-03T19:28:10.088Z,8.67
2017-09-03T19:30:11.052Z,7.30
2017-09-03T19:32:12.021Z,9.83
2017-09-03T19:34:13.082Z,5.77
2017-09-03T19:36:14.043Z,6.80
2017-09-03T19:38:16.851Z,3.67
2017-09-03T19:40:17.800Z,4.07
2017-09-03T19:42:18.751Z,4.00
2017-09-03T19:44:19.762Z,3.80
2017-09-03T19:46:20.702Z,5.30
2017-09-03T19:48:21.683Z,5.10
2017-09-03T19:50:22.633Z,4.20
2017-09-03T19:52:23.771Z,4.43
2017-09-03T19:54:25.469Z,4.90
2017-09-03T19:56:26.403Z,4.67
2017-09-03T19:58:27.365Z,4.40
2017-09-03T20:00:28.300Z,6.37
2017-09-03T20:02:29.257Z,3.87
2017-09-03T20:04:30.204Z,4.27
2017-09-03T20:06:31.147Z,5.83
2017-09-03T20:08:32.113Z,6.43
2017-09-03T20:10:33.039Z,4.20
2017-09-03T20:12:33.963Z,6.43
2017-09-03T20:14:34.993Z,4.00
2017-09-03T20:16:35.936Z,3.33
2017-09-03T20:18:36.901Z,4.20
2017-09-03T20:20:37.837Z,11.53
2017-09-03T20:22:38.763Z,5.23
2017-09-03T20:24:39.712Z,3.50
2017-09-03T20:26:41.665Z,6.20
2017-09-03T20:28:42.604Z,4.90
2017-09-03T20:30:43.566Z,2.77
2017-09-03T20:32:44.544Z,5.90
2017-09-03T20:34:45.492Z,3.63
2017-09-03T20:36:46.464Z,5.50
2017-09-03T20:38:47.407Z,4.73
2017-09-03T20:40:48.361Z,3.97
2017-09-03T20:42:49.356Z,3.40
2017-09-03T20:44:50.321Z,3.27
2017-09-03T20:46:51.397Z,6.57
2017-09-03T20:48:52.342Z,4.90
2017-09-03T20:50:53.332Z,7.40
2017-09-03T20:52:54.273Z,3.37
2017-09-03T20:54:55.199Z,4.17
2017-09-03T20:56:56.141Z,3.80
2017-09-03T20:58:57.089Z,3.23
2017-09-03T21:00:58.078Z,4.40
2017-09-03T21:02:59.043Z,4.83
2017-09-03T21:05:00.024Z,6.97
2017-09-03T21:07:01.015Z,7.90
2017-09-03T21:09:01.976Z,5.90
2017-09-03T21:11:02.921Z,6.60
2017-09-03T21:13:03.868Z,4.87
2017-09-03T21:15:04.813Z,4.60
2017-09-03T21:17:05.911Z,7.80
2017-09-03T21:19:06.852Z,5.10
2017-09-03T21:21:07.807Z,5.90
2017-09-03T21:23:08.969Z,4.87
2017-09-03T21:25:09.896Z,5.20
2017-09-03T21:27:11.020Z,6.53
2017-09-03T21:29:11.951Z,5.93
2017-09-03T21:31:12.885Z,4.43
2017-09-03T21:33:13.835Z,8.30
2017-09-03T21:35:14.776Z,4.10
2017-09-03T21:37:15.779Z,9.77
2017-09-03T21:39:16.717Z,6.60
2017-09-03T21:41:17.712Z,3.40
2017-09-03T21:43:18.655Z,4.03
2017-09-03T21:45:19.620Z,4.50
2017-09-03T21:47:20.580Z,5.80
2017-09-03T21:49:21.507Z,6.50
2017-09-03T21:51:22.545Z,18.27
2017-09-03T21:53:23.483Z,5.90
2017-09-03T21:55:24.415Z,8.30
2017-09-03T21:57:25.363Z,5.43
2017-09-03T21:59:26.636Z,6.80
2017-09-03T22:01:27.584Z,5.67
2017-09-03T22:03:28.533Z,8.40
2017-09-03T22:05:29.463Z,5.77
2017-09-03T22:07:30.394Z,13.43
2017-09-03T22:09:31.347Z,7.27
2017-09-03T22:11:32.276Z,5.67
2017-09-03T22:13:33.213Z,6.17
2017-09-03T22:15:34.347Z,9.17
2017-09-03T22:17:35.273Z,6.27
2017-09-03T22:19:36.212Z,4.70
2017-09-03T22:21:37.143Z,5.17
2017-09-03T22:23:38.089Z,5.83
2017-09-03T22:25:39.029Z,7.20
2017-09-03T22:27:39.966Z,11.70
2017-09-03T22:29:40.913Z,5.60
2017-09-03T22:31:41.860Z,6.77
2017-09-03T22:33:42.800Z,5.53
2017-09-03T22:35:43.755Z,6.03
2017-09-03T22:37:44.701Z,5.37
2017-09-03T22:39:45.643Z,5.97
2017-09-03T22:41:46.585Z,4.90
2017-09-03T22:43:47.575Z,8.97
2017-09-03T22:45:48.513Z,4.70
2017-09-03T22:47:49.443Z,10.53
2017-09-03T22:49:50.395Z,7.60
2017-09-03T22:51:51.324Z,7.57
2017-09-03T22:53:52.260Z,6.60
2017-09-03T22:55:53.206Z,5.00
2017-09-03T22:57:54.140Z,11.00
2017-09-03T22:59:55.080Z,6.47
2017-09-03T23:01:56.020Z,4.90
2017-09-03T23:03:57.020Z,5.90
2017-09-03T23:05:57.960Z,6.70
2017-09-03T23:07:58.911Z,4.80
2017-09-03T23:09:59.872Z,5.60
2017-09-03T23:12:00.811Z,6.10
2017-09-03T23:14:01.761Z,11.43
2017-09-03T23:16:02.704Z,5.00
2017-09-03T23:18:03.642Z,5.23
2017-09-03T23:20:04.595Z,5.47
2017-09-03T23:22:05.527Z,5.90
2017-09-03T23:24:06.467Z,6.43
2017-09-03T23:26:07.413Z,5.33
2017-09-03T23:28:08.356Z,8.63
2017-09-03T23:30:09.296Z,5.77
2017-09-03T23:32:10.232Z,5.90
2017-09-03T23:34:11.180Z,9.00
2017-09-03T23:36:12.180Z,5.30
2017-09-03T23:38:13.115Z,7.70
2017-09-03T23:40:14.057Z,5.13
2017-09-03T23:42:15.008Z,5.70
2017-09-03T23:44:15.931Z,6.20
2017-09-03T23:46:16.867Z,5.33
2017-09-03T23:48:17.799Z,7.80
2017-09-03T23:50:18.736Z,4.30
2017-09-03T23:52:19.677Z,4.37
2017-09-03T23:54:20.623Z,8.27
2017-09-03T23:56:21.577Z,5.17
2017-09-03T23:58:22.524Z,6.07
